sensor_id;sensor_type;location;lat;lon;timestamp;P1;durP1;ratioP1;P2;durP2;ratioP2
23072;SDS011;67971;51.046;3.732;2023-02-28T00:00:29;10.97;;;5.60;;
23072;SDS011;67971;51.046;3.732;2023-02-28T00:02:54;9.70;;;5.37;;
23072;SDS011;67971;51.046;3.732;2023-02-28T00:05:21;8.77;;;5.30;;
23072;SDS011;67971;51.046;3.732;2023-02-28T00:07:48;10.17;;;5.40;;
23072;SDS011;67971;51.046;3.732;2023-02-28T00:10:16;10.90;;;5.83;;
23072;SDS011;67971;51.046;3.732;2023-02-28T00:12:46;9.33;;;5.80;;
23072;SDS011;67971;51.046;3.732;2023-02-28T00:15:14;8.93;;;5.70;;
23072;SDS011;67971;51.046;3.732;2023-02-28T00:17:40;6.63;;;5.07;;
23072;SDS011;67971;51.046;3.732;2023-02-28T00:20:07;9.80;;;5.43;;
23072;SDS011;67971;51.046;3.732;2023-02-28T00:22:33;13.13;;;5.83;;
23072;SDS011;67971;51.046;3.732;2023-02-28T00:24:59;10.17;;;6.03;;
23072;SDS011;67971;51.046;3.732;2023-02-28T00:27:25;7.80;;;5.77;;
23072;SDS011;67971;51.046;3.732;2023-02-28T00:29:50;9.13;;;5.70;;
23072;SDS011;67971;51.046;3.732;2023-02-28T00:32:16;15.07;;;5.47;;
23072;SDS011;67971;51.046;3.732;2023-02-28T00:34:43;13.17;;;6.40;;
23072;SDS011;67971;51.046;3.732;2023-02-28T00:37:09;9.00;;;6.13;;
23072;SDS011;67971;51.046;3.732;2023-02-28T00:39:37;9.83;;;6.20;;
23072;SDS011;67971;51.046;3.732;2023-02-28T00:42:03;11.60;;;6.00;;
23072;SDS011;67971;51.046;3.732;2023-02-28T00:44:29;9.43;;;5.90;;
23072;SDS011;67971;51.046;3.732;2023-02-28T00:46:56;10.53;;;6.87;;
23072;SDS011;67971;51.046;3.732;2023-02-28T00:49:22;12.33;;;6.60;;
23072;SDS011;67971;51.046;3.732;2023-02-28T00:51:48;10.63;;;6.60;;
23072;SDS011;67971;51.046;3.732;2023-02-28T00:54:15;10.57;;;6.50;;
23072;SDS011;67971;51.046;3.732;2023-02-28T00:56:41;14.00;;;7.23;;
23072;SDS011;67971;51.046;3.732;2023-02-28T00:59:07;10.67;;;7.83;;
23072;SDS011;67971;51.046;3.732;2023-02-28T01:01:32;9.63;;;5.77;;
23072;SDS011;67971;51.046;3.732;2023-02-28T01:03:58;9.30;;;6.50;;
23072;SDS011;67971;51.046;3.732;2023-02-28T01:06:24;11.07;;;5.70;;
23072;SDS011;67971;51.046;3.732;2023-02-28T01:08:50;11.83;;;6.40;;
23072;SDS011;67971;51.046;3.732;2023-02-28T01:11:16;10.90;;;5.83;;
23072;SDS011;67971;51.046;3.732;2023-02-28T01:13:43;11.63;;;6.43;;
23072;SDS011;67971;51.046;3.732;2023-02-28T01:16:10;9.53;;;5.87;;
23072;SDS011;67971;51.046;3.732;2023-02-28T01:18:36;14.53;;;6.40;;
23072;SDS011;67971;51.046;3.732;2023-02-28T01:21:03;10.43;;;6.50;;
23072;SDS011;67971;51.046;3.732;2023-02-28T01:23:34;15.63;;;6.13;;
23072;SDS011;67971;51.046;3.732;2023-02-28T01:26:06;10.57;;;6.40;;
23072;SDS011;67971;51.046;3.732;2023-02-28T01:28:36;10.10;;;6.57;;
23072;SDS011;67971;51.046;3.732;2023-02-28T01:31:02;12.63;;;6.10;;
23072;SDS011;67971;51.046;3.732;2023-02-28T01:33:29;13.87;;;6.50;;
23072;SDS011;67971;51.046;3.732;2023-02-28T01:36:02;9.50;;;6.73;;
23072;SDS011;67971;51.046;3.732;2023-02-28T01:38:30;10.87;;;6.60;;
23072;SDS011;67971;51.046;3.732;2023-02-28T01:40:56;9.90;;;6.23;;
23072;SDS011;67971;51.046;3.732;2023-02-28T01:43:26;11.90;;;6.33;;
23072;SDS011;67971;51.046;3.732;2023-02-28T01:45:56;12.73;;;7.00;;
23072;SDS011;67971;51.046;3.732;2023-02-28T01:48:25;14.07;;;6.73;;
23072;SDS011;67971;51.046;3.732;2023-02-28T01:50:54;9.97;;;6.43;;
23072;SDS011;67971;51.046;3.732;2023-02-28T01:53:26;8.63;;;6.67;;
23072;SDS011;67971;51.046;3.732;2023-02-28T01:55:58;12.50;;;6.80;;
23072;SDS011;67971;51.046;3.732;2023-02-28T01:58:24;10.77;;;7.03;;
23072;SDS011;67971;51.046;3.732;2023-02-28T02:00:50;9.30;;;6.60;;
23072;SDS011;67971;51.046;3.732;2023-02-28T02:03:16;12.27;;;6.60;;
23072;SDS011;67971;51.046;3.732;2023-02-28T02:05:45;10.47;;;6.20;;
23072;SDS011;67971;51.046;3.732;2023-02-28T02:08:16;12.30;;;7.50;;
23072;SDS011;67971;51.046;3.732;2023-02-28T02:10:50;10.40;;;6.93;;
23072;SDS011;67971;51.046;3.732;2023-02-28T02:13:28;13.23;;;6.40;;
23072;SDS011;67971;51.046;3.732;2023-02-28T02:18:54;8.17;;;6.93;;
23072;SDS011;67971;51.046;3.732;2023-02-28T02:27:05;12.33;;;7.13;;
23072;SDS011;67971;51.046;3.732;2023-02-28T02:35:52;9.57;;;7.07;;
23072;SDS011;67971;51.046;3.732;2023-02-28T02:43:36;13.80;;;8.37;;
23072;SDS011;67971;51.046;3.732;2023-02-28T02:46:10;15.27;;;8.07;;
23072;SDS011;67971;51.046;3.732;2023-02-28T02:48:45;11.67;;;6.90;;
23072;SDS011;67971;51.046;3.732;2023-02-28T02:51:15;12.87;;;7.57;;
23072;SDS011;67971;51.046;3.732;2023-02-28T02:53:51;13.40;;;7.80;;
23072;SDS011;67971;51.046;3.732;2023-02-28T02:56:31;11.23;;;6.90;;
23072;SDS011;67971;51.046;3.732;2023-02-28T02:59:03;10.70;;;7.37;;
23072;SDS011;67971;51.046;3.732;2023-02-28T03:01:46;15.10;;;7.50;;
23072;SDS011;67971;51.046;3.732;2023-02-28T03:04:18;10.30;;;7.23;;
23072;SDS011;67971;51.046;3.732;2023-02-28T03:06:45;11.43;;;7.27;;
23072;SDS011;67971;51.046;3.732;2023-02-28T03:09:11;9.47;;;7.60;;
23072;SDS011;67971;51.046;3.732;2023-02-28T03:11:38;13.83;;;7.27;;
23072;SDS011;67971;51.046;3.732;2023-02-28T03:30:57;14.80;;;7.80;;
23072;SDS011;67971;51.046;3.732;2023-02-28T03:33:58;14.60;;;7.90;;
23072;SDS011;67971;51.046;3.732;2023-02-28T03:36:42;12.60;;;7.50;;
23072;SDS011;67971;51.046;3.732;2023-02-28T03:39:27;13.70;;;7.90;;
23072;SDS011;67971;51.046;3.732;2023-02-28T03:42:10;14.03;;;7.80;;
23072;SDS011;67971;51.046;3.732;2023-02-28T03:47:31;12.73;;;8.20;;
23072;SDS011;67971;51.046;3.732;2023-02-28T03:50:09;12.07;;;7.70;;
23072;SDS011;67971;51.046;3.732;2023-02-28T03:52:46;13.57;;;7.37;;
23072;SDS011;67971;51.046;3.732;2023-02-28T03:55:15;15.33;;;7.67;;
23072;SDS011;67971;51.046;3.732;2023-02-28T04:00:45;15.33;;;9.10;;
23072;SDS011;67971;51.046;3.732;2023-02-28T04:03:14;12.43;;;7.97;;
23072;SDS011;67971;51.046;3.732;2023-02-28T04:05:53;14.80;;;8.07;;
23072;SDS011;67971;51.046;3.732;2023-02-28T04:08:21;11.13;;;7.53;;
23072;SDS011;67971;51.046;3.732;2023-02-28T04:11:49;12.63;;;7.53;;
23072;SDS011;67971;51.046;3.732;2023-02-28T04:13:45;15.03;;;8.00;;
23072;SDS011;67971;51.046;3.732;2023-02-28T04:16:10;11.50;;;7.37;;
23072;SDS011;67971;51.046;3.732;2023-02-28T04:18:36;13.87;;;7.97;;
23072;SDS011;67971;51.046;3.732;2023-02-28T04:21:05;12.20;;;7.30;;
23072;SDS011;67971;51.046;3.732;2023-02-28T04:23:31;13.03;;;7.63;;
23072;SDS011;67971;51.046;3.732;2023-02-28T04:25:57;12.23;;;7.73;;
23072;SDS011;67971;51.046;3.732;2023-02-28T04:28:23;12.90;;;6.97;;
23072;SDS011;67971;51.046;3.732;2023-02-28T04:30:56;13.63;;;7.93;;
23072;SDS011;67971;51.046;3.732;2023-02-28T04:33:27;11.37;;;7.77;;
23072;SDS011;67971;51.046;3.732;2023-02-28T04:35:59;11.20;;;7.97;;
23072;SDS011;67971;51.046;3.732;2023-02-28T04:38:30;12.83;;;8.13;;
23072;SDS011;67971;51.046;3.732;2023-02-28T04:40:59;12.13;;;7.33;;
23072;SDS011;67971;51.046;3.732;2023-02-28T04:43:25;13.40;;;7.77;;
23072;SDS011;67971;51.046;3.732;2023-02-28T04:45:52;10.70;;;6.83;;
23072;SDS011;67971;51.046;3.732;2023-02-28T04:48:21;12.43;;;7.27;;
23072;SDS011;67971;51.046;3.732;2023-02-28T04:50:48;8.17;;;6.50;;
23072;SDS011;67971;51.046;3.732;2023-02-28T04:53:14;11.20;;;7.60;;
23072;SDS011;67971;51.046;3.732;2023-02-28T04:55:39;10.03;;;7.00;;
23072;SDS011;67971;51.046;3.732;2023-02-28T04:58:05;10.53;;;6.40;;
23072;SDS011;67971;51.046;3.732;2023-02-28T05:00:31;9.93;;;7.40;;
23072;SDS011;67971;51.046;3.732;2023-02-28T05:02:57;10.27;;;7.33;;
23072;SDS011;67971;51.046;3.732;2023-02-28T05:05:22;13.20;;;7.10;;
23072;SDS011;67971;51.046;3.732;2023-02-28T05:07:48;10.37;;;6.70;;
23072;SDS011;67971;51.046;3.732;2023-02-28T05:10:14;12.60;;;6.87;;
23072;SDS011;67971;51.046;3.732;2023-02-28T05:12:39;16.37;;;8.23;;
23072;SDS011;67971;51.046;3.732;2023-02-28T05:15:05;19.63;;;9.27;;
23072;SDS011;67971;51.046;3.732;2023-02-28T05:17:31;13.67;;;8.10;;
23072;SDS011;67971;51.046;3.732;2023-02-28T05:19:57;15.63;;;8.53;;
23072;SDS011;67971;51.046;3.732;2023-02-28T05:22:23;10.20;;;6.83;;
23072;SDS011;67971;51.046;3.732;2023-02-28T05:24:48;15.50;;;9.00;;
23072;SDS011;67971;51.046;3.732;2023-02-28T05:27:14;15.13;;;7.90;;
23072;SDS011;67971;51.046;3.732;2023-02-28T05:29:39;12.07;;;7.47;;
23072;SDS011;67971;51.046;3.732;2023-02-28T05:32:09;12.17;;;8.10;;
23072;SDS011;67971;51.046;3.732;2023-02-28T05:34:36;18.80;;;8.40;;
23072;SDS011;67971;51.046;3.732;2023-02-28T05:37:02;17.83;;;8.40;;
23072;SDS011;67971;51.046;3.732;2023-02-28T05:39:28;13.10;;;8.80;;
23072;SDS011;67971;51.046;3.732;2023-02-28T05:41:54;12.90;;;7.60;;
23072;SDS011;67971;51.046;3.732;2023-02-28T05:44:20;13.63;;;7.43;;
23072;SDS011;67971;51.046;3.732;2023-02-28T05:46:45;10.73;;;7.10;;
23072;SDS011;67971;51.046;3.732;2023-02-28T05:49:11;13.97;;;7.47;;
23072;SDS011;67971;51.046;3.732;2023-02-28T05:51:37;10.87;;;7.67;;
23072;SDS011;67971;51.046;3.732;2023-02-28T05:54:04;11.97;;;7.43;;
23072;SDS011;67971;51.046;3.732;2023-02-28T05:56:31;8.50;;;7.00;;
23072;SDS011;67971;51.046;3.732;2023-02-28T05:58:59;16.30;;;7.73;;
23072;SDS011;67971;51.046;3.732;2023-02-28T06:01:38;12.20;;;7.53;;
23072;SDS011;67971;51.046;3.732;2023-02-28T06:04:06;14.43;;;7.40;;
23072;SDS011;67971;51.046;3.732;2023-02-28T06:06:34;11.33;;;7.53;;
23072;SDS011;67971;51.046;3.732;2023-02-28T06:09:01;12.00;;;7.83;;
23072;SDS011;67971;51.046;3.732;2023-02-28T06:11:27;14.03;;;7.20;;
23072;SDS011;67971;51.046;3.732;2023-02-28T06:13:56;10.97;;;7.87;;
23072;SDS011;67971;51.046;3.732;2023-02-28T06:16:24;15.67;;;7.93;;
23072;SDS011;67971;51.046;3.732;2023-02-28T06:18:50;11.60;;;8.27;;
23072;SDS011;67971;51.046;3.732;2023-02-28T06:21:17;15.67;;;8.17;;
23072;SDS011;67971;51.046;3.732;2023-02-28T06:23:43;12.23;;;9.10;;
23072;SDS011;67971;51.046;3.732;2023-02-28T06:26:10;18.00;;;8.33;;
23072;SDS011;67971;51.046;3.732;2023-02-28T06:28:36;14.80;;;8.07;;
23072;SDS011;67971;51.046;3.732;2023-02-28T06:31:11;13.80;;;7.83;;
23072;SDS011;67971;51.046;3.732;2023-02-28T06:33:40;17.10;;;8.00;;
23072;SDS011;67971;51.046;3.732;2023-02-28T06:36:07;13.67;;;8.30;;
23072;SDS011;67971;51.046;3.732;2023-02-28T06:38:34;13.33;;;7.37;;
23072;SDS011;67971;51.046;3.732;2023-02-28T06:41:00;11.80;;;7.30;;
23072;SDS011;67971;51.046;3.732;2023-02-28T06:43:30;16.57;;;8.60;;
23072;SDS011;67971;51.046;3.732;2023-02-28T06:45:58;14.77;;;8.60;;
23072;SDS011;67971;51.046;3.732;2023-02-28T06:48:26;14.57;;;8.03;;
23072;SDS011;67971;51.046;3.732;2023-02-28T06:51:00;13.63;;;8.10;;
23072;SDS011;67971;51.046;3.732;2023-02-28T06:53:28;16.10;;;8.67;;
23072;SDS011;67971;51.046;3.732;2023-02-28T06:55:54;15.50;;;7.77;;
23072;SDS011;67971;51.046;3.732;2023-02-28T06:58:20;13.50;;;7.93;;
23072;SDS011;67971;51.046;3.732;2023-02-28T07:00:49;13.40;;;8.13;;
23072;SDS011;67971;51.046;3.732;2023-02-28T07:03:16;22.67;;;8.73;;
23072;SDS011;67971;51.046;3.732;2023-02-28T07:05:43;14.63;;;7.90;;
23072;SDS011;67971;51.046;3.732;2023-02-28T07:08:09;13.27;;;7.97;;
23072;SDS011;67971;51.046;3.732;2023-02-28T07:10:36;14.63;;;8.10;;
23072;SDS011;67971;51.046;3.732;2023-02-28T07:13:03;40.97;;;9.07;;
23072;SDS011;67971;51.046;3.732;2023-02-28T07:15:30;28.70;;;9.27;;
23072;SDS011;67971;51.046;3.732;2023-02-28T07:17:55;17.57;;;7.77;;
23072;SDS011;67971;51.046;3.732;2023-02-28T07:20:21;13.23;;;6.83;;
23072;SDS011;67971;51.046;3.732;2023-02-28T07:22:48;25.37;;;8.67;;
23072;SDS011;67971;51.046;3.732;2023-02-28T07:25:20;12.67;;;7.23;;
23072;SDS011;67971;51.046;3.732;2023-02-28T07:27:50;11.13;;;6.47;;
23072;SDS011;67971;51.046;3.732;2023-02-28T07:30:17;10.87;;;6.27;;
23072;SDS011;67971;51.046;3.732;2023-02-28T07:32:43;11.70;;;6.90;;
23072;SDS011;67971;51.046;3.732;2023-02-28T07:35:09;8.00;;;5.70;;
23072;SDS011;67971;51.046;3.732;2023-02-28T07:37:34;13.33;;;6.80;;
23072;SDS011;67971;51.046;3.732;2023-02-28T07:40:05;12.43;;;6.93;;
23072;SDS011;67971;51.046;3.732;2023-02-28T07:42:33;13.97;;;6.83;;
23072;SDS011;67971;51.046;3.732;2023-02-28T07:45:00;20.53;;;7.10;;
23072;SDS011;67971;51.046;3.732;2023-02-28T07:47:26;12.37;;;6.80;;
23072;SDS011;67971;51.046;3.732;2023-02-28T07:49:51;15.90;;;6.00;;
23072;SDS011;67971;51.046;3.732;2023-02-28T07:52:17;11.87;;;5.70;;
23072;SDS011;67971;51.046;3.732;2023-02-28T07:54:43;8.97;;;5.13;;
23072;SDS011;67971;51.046;3.732;2023-02-28T07:57:09;10.83;;;5.70;;
23072;SDS011;67971;51.046;3.732;2023-02-28T07:59:34;12.90;;;7.17;;
23072;SDS011;67971;51.046;3.732;2023-02-28T08:02:00;11.20;;;5.07;;
23072;SDS011;67971;51.046;3.732;2023-02-28T08:04:26;9.93;;;5.50;;
23072;SDS011;67971;51.046;3.732;2023-02-28T08:06:52;9.00;;;4.50;;
23072;SDS011;67971;51.046;3.732;2023-02-28T08:09:18;10.60;;;4.93;;
23072;SDS011;67971;51.046;3.732;2023-02-28T08:11:44;10.97;;;4.97;;
23072;SDS011;67971;51.046;3.732;2023-02-28T08:14:10;14.53;;;5.50;;
23072;SDS011;67971;51.046;3.732;2023-02-28T08:16:41;15.03;;;5.37;;
23072;SDS011;67971;51.046;3.732;2023-02-28T08:19:08;12.37;;;4.77;;
23072;SDS011;67971;51.046;3.732;2023-02-28T08:21:34;8.63;;;5.40;;
23072;SDS011;67971;51.046;3.732;2023-02-28T08:24:00;11.07;;;4.47;;
23072;SDS011;67971;51.046;3.732;2023-02-28T08:26:25;23.37;;;6.10;;
23072;SDS011;67971;51.046;3.732;2023-02-28T08:28:51;16.10;;;4.83;;
23072;SDS011;67971;51.046;3.732;2023-02-28T08:31:17;12.33;;;4.63;;
23072;SDS011;67971;51.046;3.732;2023-02-28T08:33:43;11.43;;;5.00;;
23072;SDS011;67971;51.046;3.732;2023-02-28T08:36:14;11.87;;;5.20;;
23072;SDS011;67971;51.046;3.732;2023-02-28T08:38:40;11.20;;;6.13;;
23072;SDS011;67971;51.046;3.732;2023-02-28T08:41:08;12.60;;;4.90;;
23072;SDS011;67971;51.046;3.732;2023-02-28T08:43:36;15.77;;;6.80;;
23072;SDS011;67971;51.046;3.732;2023-02-28T08:46:02;13.73;;;7.20;;
23072;SDS011;67971;51.046;3.732;2023-02-28T08:48:29;9.20;;;5.70;;
23072;SDS011;67971;51.046;3.732;2023-02-28T08:53:27;9.83;;;4.97;;
23072;SDS011;67971;51.046;3.732;2023-02-28T08:56:00;11.67;;;5.33;;
23072;SDS011;67971;51.046;3.732;2023-02-28T08:58:36;11.90;;;5.70;;
23072;SDS011;67971;51.046;3.732;2023-02-28T09:01:09;9.70;;;5.70;;
23072;SDS011;67971;51.046;3.732;2023-02-28T09:03:37;17.97;;;5.07;;
23072;SDS011;67971;51.046;3.732;2023-02-28T09:06:03;14.43;;;4.93;;
23072;SDS011;67971;51.046;3.732;2023-02-28T09:08:30;11.07;;;5.50;;
23072;SDS011;67971;51.046;3.732;2023-02-28T09:10:56;7.50;;;4.83;;
23072;SDS011;67971;51.046;3.732;2023-02-28T09:13:26;12.27;;;5.60;;
23072;SDS011;67971;51.046;3.732;2023-02-28T09:15:52;10.80;;;5.50;;
23072;SDS011;67971;51.046;3.732;2023-02-28T09:18:19;9.47;;;4.87;;
23072;SDS011;67971;51.046;3.732;2023-02-28T09:20:45;10.80;;;4.97;;
23072;SDS011;67971;51.046;3.732;2023-02-28T09:23:11;10.17;;;4.63;;
23072;SDS011;67971;51.046;3.732;2023-02-28T09:25:38;13.70;;;5.47;;
23072;SDS011;67971;51.046;3.732;2023-02-28T09:28:13;11.30;;;4.70;;
23072;SDS011;67971;51.046;3.732;2023-02-28T09:30:47;9.63;;;5.57;;
23072;SDS011;67971;51.046;3.732;2023-02-28T09:33:15;10.47;;;6.37;;
23072;SDS011;67971;51.046;3.732;2023-02-28T09:35:42;12.93;;;6.70;;
23072;SDS011;67971;51.046;3.732;2023-02-28T09:38:08;9.23;;;5.40;;
23072;SDS011;67971;51.046;3.732;2023-02-28T09:40:35;9.43;;;5.80;;
23072;SDS011;67971;51.046;3.732;2023-02-28T09:43:04;12.20;;;5.00;;
23072;SDS011;67971;51.046;3.732;2023-02-28T09:45:32;6.87;;;4.17;;
23072;SDS011;67971;51.046;3.732;2023-02-28T09:48:07;7.50;;;4.67;;
23072;SDS011;67971;51.046;3.732;2023-02-28T09:50:48;7.97;;;4.40;;
23072;SDS011;67971;51.046;3.732;2023-02-28T09:53:26;11.27;;;5.20;;
23072;SDS011;67971;51.046;3.732;2023-02-28T09:56:01;14.73;;;4.97;;
23072;SDS011;67971;51.046;3.732;2023-02-28T10:12:47;23.40;;;5.47;;
23072;SDS011;67971;51.046;3.732;2023-02-28T10:15:14;5.80;;;3.37;;
23072;SDS011;67971;51.046;3.732;2023-02-28T10:17:42;12.87;;;4.67;;
23072;SDS011;67971;51.046;3.732;2023-02-28T10:20:13;12.73;;;4.40;;
23072;SDS011;67971;51.046;3.732;2023-02-28T10:22:57;14.03;;;4.37;;
23072;SDS011;67971;51.046;3.732;2023-02-28T10:25:32;13.33;;;4.53;;
23072;SDS011;67971;51.046;3.732;2023-02-28T10:28:13;10.97;;;4.07;;
23072;SDS011;67971;51.046;3.732;2023-02-28T10:30:45;6.50;;;2.97;;
23072;SDS011;67971;51.046;3.732;2023-02-28T10:35:59;5.73;;;2.70;;
23072;SDS011;67971;51.046;3.732;2023-02-28T10:38:36;12.83;;;3.30;;
23072;SDS011;67971;51.046;3.732;2023-02-28T10:41:14;7.43;;;3.47;;
23072;SDS011;67971;51.046;3.732;2023-02-28T10:43:42;6.97;;;3.03;;
23072;SDS011;67971;51.046;3.732;2023-02-28T10:48:43;7.63;;;3.17;;
23072;SDS011;67971;51.046;3.732;2023-02-28T10:51:14;6.00;;;2.60;;
23072;SDS011;67971;51.046;3.732;2023-02-28T10:56:21;4.27;;;2.87;;
23072;SDS011;67971;51.046;3.732;2023-02-28T11:03:47;5.97;;;3.07;;
23072;SDS011;67971;51.046;3.732;2023-02-28T11:06:20;5.30;;;3.30;;
23072;SDS011;67971;51.046;3.732;2023-02-28T11:11:18;6.17;;;3.03;;
23072;SDS011;67971;51.046;3.732;2023-02-28T11:13:45;5.03;;;2.33;;
23072;SDS011;67971;51.046;3.732;2023-02-28T11:16:13;5.05;;;2.83;;
23072;SDS011;67971;51.046;3.732;2023-02-28T11:18:50;4.13;;;2.78;;
23072;SDS011;67971;51.046;3.732;2023-02-28T11:21:32;7.75;;;3.22;;
23072;SDS011;67971;51.046;3.732;2023-02-28T11:29:17;7.10;;;3.20;;
23072;SDS011;67971;51.046;3.732;2023-02-28T11:32:00;9.95;;;3.05;;
23072;SDS011;67971;51.046;3.732;2023-02-28T11:34:28;7.60;;;3.33;;
23072;SDS011;67971;51.046;3.732;2023-02-28T11:36:55;13.50;;;3.00;;
23072;SDS011;67971;51.046;3.732;2023-02-28T11:39:23;4.35;;;2.65;;
23072;SDS011;67971;51.046;3.732;2023-02-28T11:42:00;5.30;;;2.85;;
23072;SDS011;67971;51.046;3.732;2023-02-28T11:55:31;3.85;;;2.75;;
23072;SDS011;67971;51.046;3.732;2023-02-28T12:00:55;22.60;;;3.33;;
23072;SDS011;67971;51.046;3.732;2023-02-28T12:11:55;6.65;;;3.63;;
23072;SDS011;67971;51.046;3.732;2023-02-28T12:17:16;69.32;;;7.60;;
23072;SDS011;67971;51.046;3.732;2023-02-28T12:22:30;3.92;;;2.45;;
23072;SDS011;67971;51.046;3.732;2023-02-28T12:27:32;139.70;;;13.38;;
23072;SDS011;67971;51.046;3.732;2023-02-28T12:30:02;59.75;;;6.22;;
23072;SDS011;67971;51.046;3.732;2023-02-28T12:32:44;95.28;;;9.52;;
23072;SDS011;67971;51.046;3.732;2023-02-28T12:35:14;98.75;;;8.13;;
23072;SDS011;67971;51.046;3.732;2023-02-28T12:37:45;59.33;;;7.32;;
23072;SDS011;67971;51.046;3.732;2023-02-28T12:40:18;4.45;;;2.03;;
23072;SDS011;67971;51.046;3.732;2023-02-28T12:42:48;3.95;;;2.00;;
23072;SDS011;67971;51.046;3.732;2023-02-28T12:45:24;3.72;;;2.20;;
23072;SDS011;67971;51.046;3.732;2023-02-28T12:47:56;2.72;;;1.92;;
23072;SDS011;67971;51.046;3.732;2023-02-28T12:50:28;5.75;;;2.67;;
23072;SDS011;67971;51.046;3.732;2023-02-28T12:53:18;7.55;;;3.10;;
23072;SDS011;67971;51.046;3.732;2023-02-28T12:58:43;12.45;;;2.25;;
23072;SDS011;67971;51.046;3.732;2023-02-28T13:03:45;5.15;;;1.77;;
23072;SDS011;67971;51.046;3.732;2023-02-28T13:06:21;7.82;;;1.83;;
23072;SDS011;67971;51.046;3.732;2023-02-28T13:09:04;8.45;;;2.55;;
23072;SDS011;67971;51.046;3.732;2023-02-28T13:11:38;4.47;;;2.33;;
23072;SDS011;67971;51.046;3.732;2023-02-28T13:14:05;4.25;;;2.33;;
23072;SDS011;67971;51.046;3.732;2023-02-28T13:19:28;7.75;;;3.00;;
23072;SDS011;67971;51.046;3.732;2023-02-28T13:21:56;5.70;;;1.98;;
23072;SDS011;67971;51.046;3.732;2023-02-28T13:24:43;6.88;;;2.30;;
23072;SDS011;67971;51.046;3.732;2023-02-28T13:29:41;5.43;;;2.40;;
23072;SDS011;67971;51.046;3.732;2023-02-28T13:34:35;10.68;;;2.17;;
23072;SDS011;67971;51.046;3.732;2023-02-28T13:43:01;4.78;;;2.15;;
23072;SDS011;67971;51.046;3.732;2023-02-28T13:45:28;3.50;;;1.95;;
23072;SDS011;67971;51.046;3.732;2023-02-28T13:55:38;7.50;;;2.17;;
23072;SDS011;67971;51.046;3.732;2023-02-28T14:01:26;2.88;;;1.83;;
23072;SDS011;67971;51.046;3.732;2023-02-28T14:06:37;54.70;;;6.07;;
23072;SDS011;67971;51.046;3.732;2023-02-28T14:11:37;52.28;;;5.25;;
23072;SDS011;67971;51.046;3.732;2023-02-28T14:14:06;4.50;;;2.55;;
23072;SDS011;67971;51.046;3.732;2023-02-28T14:16:47;5.85;;;2.47;;
23072;SDS011;67971;51.046;3.732;2023-02-28T14:19:28;7.13;;;2.90;;
23072;SDS011;67971;51.046;3.732;2023-02-28T14:24:48;5.00;;;2.35;;
23072;SDS011;67971;51.046;3.732;2023-02-28T14:35:43;2.67;;;2.40;;
23072;SDS011;67971;51.046;3.732;2023-02-28T14:38:20;6.75;;;2.72;;
23072;SDS011;67971;51.046;3.732;2023-02-28T14:40:51;30.17;;;3.70;;
23072;SDS011;67971;51.046;3.732;2023-02-28T14:43:20;5.43;;;2.67;;
23072;SDS011;67971;51.046;3.732;2023-02-28T14:45:51;13.13;;;3.33;;
23072;SDS011;67971;51.046;3.732;2023-02-28T14:48:29;7.47;;;2.85;;
23072;SDS011;67971;51.046;3.732;2023-02-28T14:50:59;6.13;;;2.75;;
23072;SDS011;67971;51.046;3.732;2023-02-28T14:53:30;14.40;;;3.20;;
23072;SDS011;67971;51.046;3.732;2023-02-28T14:56:01;7.82;;;3.25;;
23072;SDS011;67971;51.046;3.732;2023-02-28T14:58:31;7.72;;;3.42;;
23072;SDS011;67971;51.046;3.732;2023-02-28T15:01:00;3.20;;;2.80;;
23072;SDS011;67971;51.046;3.732;2023-02-28T15:05:59;9.88;;;2.97;;
23072;SDS011;67971;51.046;3.732;2023-02-28T15:08:27;7.95;;;2.50;;
23072;SDS011;67971;51.046;3.732;2023-02-28T15:11:07;8.10;;;3.33;;
23072;SDS011;67971;51.046;3.732;2023-02-28T15:13:44;14.52;;;3.83;;
23072;SDS011;67971;51.046;3.732;2023-02-28T15:16:22;6.95;;;3.97;;
23072;SDS011;67971;51.046;3.732;2023-02-28T15:19:20;6.32;;;4.68;;
23072;SDS011;67971;51.046;3.732;2023-02-28T15:22:12;7.68;;;3.47;;
23072;SDS011;67971;51.046;3.732;2023-02-28T15:27:18;17.42;;;4.05;;
23072;SDS011;67971;51.046;3.732;2023-02-28T15:30:04;5.60;;;2.78;;
23072;SDS011;67971;51.046;3.732;2023-02-28T15:32:34;44.55;;;7.43;;
23072;SDS011;67971;51.046;3.732;2023-02-28T15:35:18;95.33;;;13.50;;
23072;SDS011;67971;51.046;3.732;2023-02-28T15:37:50;59.67;;;9.40;;
23072;SDS011;67971;51.046;3.732;2023-02-28T15:40:38;7.93;;;3.10;;
23072;SDS011;67971;51.046;3.732;2023-02-28T15:50:55;7.60;;;3.30;;
23072;SDS011;67971;51.046;3.732;2023-02-28T15:53:31;4.20;;;2.90;;
23072;SDS011;67971;51.046;3.732;2023-02-28T15:56:03;8.50;;;3.40;;
23072;SDS011;67971;51.046;3.732;2023-02-28T15:58:32;7.03;;;3.45;;
23072;SDS011;67971;51.046;3.732;2023-02-28T16:01:23;14.47;;;4.37;;
23072;SDS011;67971;51.046;3.732;2023-02-28T16:04:01;9.05;;;3.42;;
23072;SDS011;67971;51.046;3.732;2023-02-28T16:06:33;7.13;;;3.73;;
23072;SDS011;67971;51.046;3.732;2023-02-28T16:09:05;92.50;;;8.33;;
23072;SDS011;67971;51.046;3.732;2023-02-28T16:11:34;8.23;;;3.57;;
23072;SDS011;67971;51.046;3.732;2023-02-28T16:14:11;6.97;;;3.30;;
23072;SDS011;67971;51.046;3.732;2023-02-28T16:16:46;4.10;;;2.90;;
23072;SDS011;67971;51.046;3.732;2023-02-28T16:19:15;11.27;;;3.10;;
23072;SDS011;67971;51.046;3.732;2023-02-28T16:21:44;11.20;;;3.53;;
23072;SDS011;67971;51.046;3.732;2023-02-28T16:24:11;4.27;;;3.10;;
23072;SDS011;67971;51.046;3.732;2023-02-28T16:26:39;6.37;;;3.30;;
23072;SDS011;67971;51.046;3.732;2023-02-28T16:29:06;7.83;;;3.33;;
23072;SDS011;67971;51.046;3.732;2023-02-28T16:31:35;3.60;;;3.00;;
23072;SDS011;67971;51.046;3.732;2023-02-28T16:34:02;8.00;;;3.63;;
23072;SDS011;67971;51.046;3.732;2023-02-28T16:36:29;5.23;;;3.60;;
23072;SDS011;67971;51.046;3.732;2023-02-28T16:38:55;13.73;;;4.27;;
23072;SDS011;67971;51.046;3.732;2023-02-28T16:41:22;8.40;;;4.37;;
23072;SDS011;67971;51.046;3.732;2023-02-28T16:43:52;6.20;;;3.30;;
23072;SDS011;67971;51.046;3.732;2023-02-28T16:46:23;5.63;;;3.33;;
23072;SDS011;67971;51.046;3.732;2023-02-28T16:48:50;4.03;;;3.30;;
23072;SDS011;67971;51.046;3.732;2023-02-28T16:51:16;5.47;;;3.10;;
23072;SDS011;67971;51.046;3.732;2023-02-28T16:53:43;6.77;;;3.47;;
23072;SDS011;67971;51.046;3.732;2023-02-28T16:56:17;7.97;;;4.30;;
23072;SDS011;67971;51.046;3.732;2023-02-28T16:58:45;4.97;;;3.80;;
23072;SDS011;67971;51.046;3.732;2023-02-28T17:01:11;5.83;;;3.80;;
23072;SDS011;67971;51.046;3.732;2023-02-28T17:03:37;7.83;;;4.20;;
23072;SDS011;67971;51.046;3.732;2023-02-28T17:06:05;9.13;;;4.03;;
23072;SDS011;67971;51.046;3.732;2023-02-28T17:08:31;6.97;;;4.33;;
23072;SDS011;67971;51.046;3.732;2023-02-28T17:10:58;6.73;;;3.97;;
23072;SDS011;67971;51.046;3.732;2023-02-28T17:13:24;5.13;;;3.97;;
23072;SDS011;67971;51.046;3.732;2023-02-28T17:15:50;9.37;;;4.03;;
23072;SDS011;67971;51.046;3.732;2023-02-28T17:18:16;5.03;;;3.43;;
23072;SDS011;67971;51.046;3.732;2023-02-28T17:20:47;10.43;;;3.83;;
23072;SDS011;67971;51.046;3.732;2023-02-28T17:23:12;7.87;;;3.60;;
23072;SDS011;67971;51.046;3.732;2023-02-28T17:25:38;7.33;;;4.00;;
23072;SDS011;67971;51.046;3.732;2023-02-28T17:28:04;9.70;;;4.23;;
23072;SDS011;67971;51.046;3.732;2023-02-28T17:30:30;14.00;;;5.33;;
23072;SDS011;67971;51.046;3.732;2023-02-28T17:32:59;5.43;;;4.10;;
23072;SDS011;67971;51.046;3.732;2023-02-28T17:35:25;7.50;;;5.10;;
23072;SDS011;67971;51.046;3.732;2023-02-28T17:37:52;10.10;;;4.47;;
23072;SDS011;67971;51.046;3.732;2023-02-28T17:40:21;8.07;;;4.63;;
23072;SDS011;67971;51.046;3.732;2023-02-28T17:42:48;8.57;;;4.47;;
23072;SDS011;67971;51.046;3.732;2023-02-28T17:45:16;8.20;;;4.63;;